Time;durP1;ratioP1;P1;durP2;ratioP2;P2;SDS_P1;SDS_P2;PMS_P1;PMS_P2;Temp;Humidity;BMP_temperature;BMP_pressure;BME280_temperature;BME280_humidity;BME280_pressure;Samples;Min_cycle;Max_cycle;Signal;HPM_P1;HPM_P2
2024/01/26 00:01:35;;;;;;;10.93;5.45;;;;;;;4.50;100.00;95131.56;6217135;23;19996;-89
2024/01/26 00:04:01;;;;;;;9.80;4.63;;;;;;;4.56;100.00;95133.31;6216033;23;20071;-88
2024/01/26 00:06:26;;;;;;;10.90;4.40;;;;;;;4.45;100.00;95134.00;6216189;23;20023;-89
2024/01/26 00:08:54;;;;;;;13.88;4.60;;;;;;;4.57;100.00;95137.50;6215559;23;20313;-88
2024/01/26 00:11:20;;;;;;;12.43;6.03;;;;;;;4.83;100.00;95138.31;6215545;23;20001;-88
2024/01/26 00:13:46;;;;;;;16.58;7.28;;;;;;;4.77;100.00;95139.97;6191086;23;20000;-88
2024/01/26 00:16:14;;;;;;;20.27;6.95;;;;;;;5.09;100.00;95134.72;6191074;23;20001;-88
2024/01/26 00:18:40;;;;;;;16.50;7.13;;;;;;;4.86;100.00;95144.91;6191597;23;20083;-88
2024/01/26 00:21:06;;;;;;;12.63;4.85;;;;;;;4.70;100.00;95139.22;6190827;23;20005;-88
2024/01/26 00:23:32;;;;;;;15.55;6.90;;;;;;;4.69;100.00;95142.03;6215926;23;20000;-88
2024/01/26 00:25:57;;;;;;;18.92;9.48;;;;;;;5.05;100.00;95143.16;6215751;23;19997;-88
2024/01/26 00:28:23;;;;;;;18.65;9.27;;;;;;;5.26;100.00;95141.16;6190852;23;20391;-89
2024/01/26 00:30:48;;;;;;;22.15;9.27;;;;;;;5.23;100.00;95142.38;6190397;23;20001;-89
2024/01/26 00:33:14;;;;;;;16.38;8.02;;;;;;;5.35;100.00;95140.66;6190881;23;20004;-89
2024/01/26 00:35:39;;;;;;;7.82;3.70;;;;;;;5.30;100.00;95137.94;6216893;23;20071;-89
2024/01/26 00:38:05;;;;;;;10.57;4.65;;;;;;;4.91;100.00;95129.47;6192825;23;20083;-89
2024/01/26 00:40:30;;;;;;;13.88;6.95;;;;;;;4.85;100.00;95136.31;6217420;23;19993;-89
2024/01/26 00:42:56;;;;;;;11.40;5.15;;;;;;;4.86;100.00;95131.91;6192713;23;20300;-89
2024/01/26 00:45:21;;;;;;;19.15;5.75;;;;;;;4.58;100.00;95135.72;6217176;23;20398;-89
2024/01/26 00:47:49;;;;;;;17.85;5.28;;;;;;;4.71;100.00;95129.63;6192728;23;20023;-89
2024/01/26 00:50:14;;;;;;;10.15;4.75;;;;;;;4.99;100.00;95138.78;6217320;23;20007;-89
2024/01/26 00:52:40;;;;;;;10.82;4.95;;;;;;;5.05;100.00;95124.97;6192403;23;20004;-89
2024/01/26 00:55:05;;;;;;;10.27;5.07;;;;;;;5.37;100.00;95130.84;6217459;23;20007;-89
2024/01/26 00:57:31;;;;;;;8.25;4.53;;;;;;;5.40;100.00;95134.06;6192444;23;20008;-89
2024/01/26 00:59:56;;;;;;;12.45;4.60;;;;;;;5.47;100.00;95143.38;6217360;23;19997;-89
2024/01/26 01:02:23;;;;;;;10.32;4.53;;;;;;;5.00;100.00;95137.78;6217096;23;20005;-89
2024/01/26 01:04:48;;;;;;;11.10;4.68;;;;;;;4.86;100.00;95143.09;6192646;23;20000;-89
2024/01/26 01:07:14;;;;;;;11.15;4.38;;;;;;;5.04;100.00;95146.75;6217345;23;20000;-88
2024/01/26 01:09:41;;;;;;;11.48;4.53;;;;;;;5.14;100.00;95144.47;6192410;23;20088;-89
2024/01/26 01:12:07;;;;;;;14.85;4.93;;;;;;;5.20;100.00;95148.81;6192637;23;20026;-89
2024/01/26 01:14:32;;;;;;;11.00;4.47;;;;;;;4.98;100.00;95151.00;6192451;23;19992;-89
2024/01/26 01:16:58;;;;;;;9.48;5.15;;;;;;;4.89;100.00;95153.06;6192121;23;20001;-89
2024/01/26 01:19:23;;;;;;;9.48;4.72;;;;;;;4.86;100.00;95142.31;6192812;23;20071;-89
2024/01/26 01:21:49;;;;;;;14.65;4.38;;;;;;;4.92;100.00;95150.03;6192649;23;20005;-89
2024/01/26 01:24:14;;;;;;;10.15;4.75;;;;;;;4.80;100.00;95143.94;6192731;23;20034;-89
2024/01/26 01:26:40;;;;;;;9.52;5.00;;;;;;;5.11;100.00;95142.28;6217186;23;20051;-88
2024/01/26 01:29:07;;;;;;;14.35;5.43;;;;;;;4.92;100.00;95134.47;6192267;23;20001;-89
2024/01/26 01:31:33;;;;;;;13.73;4.32;;;;;;;4.89;100.00;95137.50;6217008;23;20413;-89
2024/01/26 01:33:59;;;;;;;7.78;4.53;;;;;;;5.01;100.00;95140.19;6192223;23;19997;-89
2024/01/26 01:36:24;;;;;;;10.07;4.82;;;;;;;5.09;100.00;95139.13;6192342;23;20430;-89
2024/01/26 01:38:50;;;;;;;11.18;5.05;;;;;;;5.04;100.00;95144.16;6192173;23;20330;-88
2024/01/26 01:41:15;;;;;;;15.85;4.72;;;;;;;5.07;100.00;95139.31;6192441;23;20001;-89
2024/01/26 01:43:41;;;;;;;9.38;5.00;;;;;;;5.13;100.00;95144.69;6191692;23;20075;-89
2024/01/26 01:46:06;;;;;;;11.30;5.07;;;;;;;4.94;100.00;95139.44;6191902;23;20004;-89
2024/01/26 01:48:32;;;;;;;9.93;4.70;;;;;;;4.89;100.00;95150.47;6191847;23;20009;-88
2024/01/26 01:50:58;;;;;;;10.32;4.43;;;;;;;4.67;100.00;95150.81;6217064;23;19996;-89
2024/01/26 01:53:24;;;;;;;9.77;4.93;;;;;;;4.72;100.00;95150.19;6192036;23;20060;-89
2024/01/26 01:55:51;;;;;;;11.10;5.63;;;;;;;4.64;100.00;95151.25;6217011;23;20000;-89
2024/01/26 01:58:17;;;;;;;12.50;5.45;;;;;;;4.41;100.00;95148.38;6191952;23;20004;-89
2024/01/26 02:00:43;;;;;;;17.95;5.65;;;;;;;4.40;100.00;95142.41;6191984;23;20008;-89
2024/01/26 02:03:08;;;;;;;15.60;5.47;;;;;;;4.29;100.00;95138.66;6191899;23;20014;-89
2024/01/26 02:05:34;;;;;;;12.85;5.95;;;;;;;4.14;100.00;95138.16;6217157;23;19996;-89
2024/01/26 02:07:59;;;;;;;15.18;5.45;;;;;;;4.14;100.00;95133.75;6217789;23;20087;-89
2024/01/26 02:10:26;;;;;;;12.38;6.18;;;;;;;4.14;100.00;95138.16;6215348;23;20004;-89
2024/01/26 02:12:52;;;;;;;16.13;6.82;;;;;;;4.28;100.00;95136.28;6191269;23;20022;-89
2024/01/26 02:15:17;;;;;;;17.13;7.55;;;;;;;4.33;100.00;95123.47;6216119;23;20028;-89
2024/01/26 02:17:44;;;;;;;19.38;8.00;;;;;;;4.31;100.00;95125.50;6190534;23;20019;-89
2024/01/26 02:20:10;;;;;;;17.88;7.18;;;;;;;4.55;100.00;95123.16;6190861;23;20001;-89
2024/01/26 02:22:37;;;;;;;16.20;6.95;;;;;;;4.61;100.00;95123.13;6216306;23;20050;-89
2024/01/26 02:25:04;;;;;;;13.93;6.45;;;;;;;4.70;100.00;95121.06;6191781;23;19996;-89
2024/01/26 02:27:30;;;;;;;22.13;7.50;;;;;;;4.70;100.00;95118.47;6216422;23;20015;-89
2024/01/26 02:29:55;;;;;;;21.80;6.80;;;;;;;4.92;100.00;95121.47;6217630;23;20075;-88
2024/01/26 02:32:21;;;;;;;14.77;6.43;;;;;;;4.98;100.00;95125.03;6216282;23;19992;-89
2024/01/26 02:34:46;;;;;;;12.23;5.07;;;;;;;5.36;100.00;95129.25;6191693;23;20460;-89
2024/01/26 02:37:13;;;;;;;17.20;6.95;;;;;;;5.05;100.00;95119.78;6191475;23;20000;-89
2024/01/26 02:39:39;;;;;;;16.17;6.28;;;;;;;4.87;100.00;95118.72;6191672;23;20369;-89
2024/01/26 02:42:05;;;;;;;10.40;5.05;;;;;;;4.76;100.00;95117.59;6191555;23;19992;-89
2024/01/26 02:44:34;;;;;;;16.65;6.50;;;;;;;4.73;100.00;95132.78;6191639;23;20066;-88
2024/01/26 02:47:00;;;;;;;14.13;5.22;;;;;;;4.77;100.00;95121.00;6191818;23;20353;-88
2024/01/26 02:49:26;;;;;;;13.27;5.28;;;;;;;4.75;100.00;95123.03;6216373;23;20147;-89
2024/01/26 02:51:51;;;;;;;11.27;4.50;;;;;;;5.06;100.00;95116.19;6216151;23;20020;-89
2024/01/26 02:54:16;;;;;;;9.40;4.63;;;;;;;5.30;100.00;95124.13;6191398;23;20010;-89
2024/01/26 02:56:42;;;;;;;19.25;6.57;;;;;;;5.53;100.00;95123.53;6191362;23;20004;-89
2024/01/26 02:59:07;;;;;;;11.75;5.10;;;;;;;5.81;100.00;95124.81;6216140;23;20043;-89
2024/01/26 03:01:33;;;;;;;18.23;7.90;;;;;;;5.91;100.00;95122.47;6216125;23;20019;-89
2024/01/26 03:03:59;;;;;;;10.65;5.32;;;;;;;5.91;100.00;95114.69;6191396;23;20087;-89
2024/01/26 03:06:25;;;;;;;10.35;4.70;;;;;;;5.64;100.00;95112.38;6216450;23;20338;-89
2024/01/26 03:08:50;;;;;;;13.63;5.50;;;;;;;5.54;100.00;95111.31;6216054;23;20011;-89
2024/01/26 03:11:16;;;;;;;16.35;5.63;;;;;;;5.35;100.00;95100.91;6191234;23;19996;-89
2024/01/26 03:13:41;;;;;;;25.08;5.80;;;;;;;5.37;100.00;95096.28;6216659;23;20004;-88
2024/01/26 03:16:07;;;;;;;12.55;4.55;;;;;;;5.23;100.00;95096.41;6215869;23;20460;-89
2024/01/26 03:18:34;;;;;;;8.10;3.05;;;;;;;5.25;100.00;95093.63;6216033;23;19992;-88
2024/01/26 03:21:00;;;;;;;10.18;4.38;;;;;;;5.47;100.00;95107.00;6191853;23;19996;-88
2024/01/26 03:23:26;;;;;;;11.02;5.10;;;;;;;5.74;100.00;95095.50;6191152;23;20004;-88
2024/01/26 03:25:51;;;;;;;11.77;4.97;;;;;;;5.62;100.00;95096.22;6216122;23;19996;-89
2024/01/26 03:28:17;;;;;;;10.52;4.07;;;;;;;5.37;100.00;95096.28;6215924;23;20010;-89
2024/01/26 03:30:45;;;;;;;18.05;5.75;;;;;;;5.23;100.00;95098.22;6190763;23;20134;-89
2024/01/26 03:33:10;;;;;;;12.57;5.57;;;;;;;5.13;100.00;95096.13;6191109;23;20004;-89
2024/01/26 03:35:36;;;;;;;11.50;4.47;;;;;;;5.11;100.00;95102.56;6216112;23;20000;-88
2024/01/26 03:38:02;;;;;;;12.15;4.20;;;;;;;4.97;100.00;95088.88;6190253;23;20043;-89
2024/01/26 03:40:28;;;;;;;11.57;4.60;;;;;;;4.86;100.00;95092.97;6215572;23;20075;-89
2024/01/26 03:42:53;;;;;;;10.75;4.13;;;;;;;4.70;100.00;95096.88;6190632;23;20079;-89
2024/01/26 03:45:19;;;;;;;11.65;4.55;;;;;;;4.71;100.00;95103.66;6215731;23;20008;-88
2024/01/26 03:47:44;;;;;;;11.15;4.18;;;;;;;4.72;100.00;95100.06;6214930;23;20011;-88
2024/01/26 03:50:10;;;;;;;8.02;3.92;;;;;;;4.64;100.00;95098.53;6189735;23;20007;-88
2024/01/26 03:52:35;;;;;;;7.93;3.65;;;;;;;4.61;100.00;95097.16;6215051;23;20006;-88
2024/01/26 03:55:01;;;;;;;6.63;3.47;;;;;;;4.81;100.00;95099.59;6190539;23;20075;-88
2024/01/26 03:57:26;;;;;;;10.88;3.97;;;;;;;4.91;100.00;95093.13;6190777;23;20395;-89
2024/01/26 03:59:52;;;;;;;12.27;4.20;;;;;;;4.86;100.00;95085.19;6215263;23;19988;-88
2024/01/26 04:02:17;;;;;;;7.45;3.60;;;;;;;4.89;100.00;95088.16;6190870;23;20063;-88
2024/01/26 04:04:44;;;;;;;11.85;4.97;;;;;;;4.76;100.00;95098.66;6191110;23;20342;-88
2024/01/26 04:07:11;;;;;;;8.30;3.90;;;;;;;4.39;100.00;95091.53;6215606;23;20079;-89
2024/01/26 04:09:36;;;;;;;7.20;3.90;;;;;;;4.30;100.00;95092.78;6191751;23;20016;-89
2024/01/26 04:12:02;;;;;;;10.63;3.45;;;;;;;4.28;100.00;95092.97;6192172;23;20390;-88
2024/01/26 04:14:28;;;;;;;6.97;2.85;;;;;;;4.37;100.00;95086.53;6192859;23;20000;-88
2024/01/26 04:16:53;;;;;;;8.63;3.45;;;;;;;4.46;100.00;95089.66;6192716;23;20399;-88
2024/01/26 04:19:19;;;;;;;6.68;3.50;;;;;;;4.31;100.00;95084.78;6192824;23;20000;-88
2024/01/26 04:21:45;;;;;;;9.48;2.83;;;;;;;4.27;100.00;95099.16;6192642;23;20008;-89
2024/01/26 04:24:11;;;;;;;8.82;3.35;;;;;;;4.24;100.00;95103.00;6217160;23;20323;-88
2024/01/26 04:26:36;;;;;;;8.50;2.85;;;;;;;4.32;100.00;95099.34;6217539;23;20024;-88
2024/01/26 04:29:02;;;;;;;6.93;2.97;;;;;;;4.35;100.00;95111.91;6217449;23;20363;-89
2024/01/26 04:31:27;;;;;;;6.88;2.60;;;;;;;4.41;100.00;95099.09;6218627;23;20059;-88
2024/01/26 04:33:53;;;;;;;5.38;2.47;;;;;;;4.17;100.00;95093.66;6192519;23;20001;-88
2024/01/26 04:36:18;;;;;;;5.50;2.50;;;;;;;4.23;100.00;95098.81;6192577;23;20057;-88
2024/01/26 04:38:43;;;;;;;8.88;3.25;;;;;;;4.13;100.00;95097.66;6218037;23;20283;-88
2024/01/26 04:41:09;;;;;;;5.22;2.70;;;;;;;4.07;100.00;95099.28;6192686;23;20000;-87
2024/01/26 04:43:34;;;;;;;5.57;2.90;;;;;;;3.92;100.00;95102.16;6191371;23;20709;-88
2024/01/26 04:46:00;;;;;;;8.07;3.05;;;;;;;4.27;100.00;95099.16;6192654;23;20008;-88
2024/01/26 04:48:25;;;;;;;9.43;3.28;;;;;;;4.24;100.00;95103.00;6192573;23;20407;-88
2024/01/26 04:50:51;;;;;;;8.32;3.45;;;;;;;4.33;100.00;95108.72;6192470;23;20342;-88
2024/01/26 04:53:16;;;;;;;9.27;3.35;;;;;;;4.13;100.00;95101.06;6192429;23;20004;-88
2024/01/26 04:55:41;;;;;;;6.32;2.70;;;;;;;4.18;100.00;95105.63;6192795;23;20032;-88
2024/01/26 04:58:07;;;;;;;8.18;3.30;;;;;;;4.04;100.00;95107.47;6217222;23;20001;-88
2024/01/26 05:00:32;;;;;;;8.98;3.20;;;;;;;3.95;100.00;95109.50;6192147;23;20071;-88
2024/01/26 05:02:58;;;;;;;6.72;2.70;;;;;;;4.00;100.00;95111.50;6192690;23;20007;-87
2024/01/26 05:05:24;;;;;;;7.63;2.88;;;;;;;4.01;100.00;95116.44;6192078;23;20008;-88
2024/01/26 05:07:49;;;;;;;12.40;2.97;;;;;;;3.86;100.00;95116.72;6192144;23;20314;-87
2024/01/26 05:10:15;;;;;;;7.15;2.63;;;;;;;3.87;100.00;95120.91;6191573;23;20000;-88
2024/01/26 05:12:41;;;;;;;8.73;3.65;;;;;;;3.91;100.00;95124.69;6192852;23;20062;-87
2024/01/26 05:15:11;;;;;;;6.55;2.88;;;;;;;4.02;100.00;95131.03;6216549;23;19996;-88
2024/01/26 05:17:36;;;;;;;8.00;2.55;;;;;;;3.77;100.00;95138.69;6216774;23;20004;-88
2024/01/26 05:20:04;;;;;;;4.75;2.40;;;;;;;3.65;100.00;95135.94;6191951;23;20050;-88
2024/01/26 05:22:30;;;;;;;5.20;2.47;;;;;;;3.61;100.00;95139.97;6216614;23;20032;-87
2024/01/26 05:24:55;;;;;;;7.57;2.90;;;;;;;3.55;100.00;95151.94;6191799;23;20012;-88
2024/01/26 05:27:21;;;;;;;7.53;2.90;;;;;;;3.60;100.00;95159.88;6192330;23;20001;-89
2024/01/26 05:29:46;;;;;;;7.30;3.63;;;;;;;3.58;100.00;95174.84;6192430;23;20005;-88
2024/01/26 05:32:12;;;;;;;8.52;3.03;;;;;;;3.53;100.00;95178.03;6217807;23;20058;-88
2024/01/26 05:34:38;;;;;;;7.95;3.08;;;;;;;3.58;100.00;95181.81;6192617;23;19997;-89
2024/01/26 05:37:03;;;;;;;12.07;3.63;;;;;;;3.50;100.00;95175.84;6191788;23;20007;-89
2024/01/26 05:39:29;;;;;;;6.93;3.58;;;;;;;3.58;100.00;95185.22;6191889;23;20004;-88
2024/01/26 05:41:54;;;;;;;8.38;3.47;;;;;;;3.58;100.00;95182.63;6192096;23;20000;-89
2024/01/26 05:44:20;;;;;;;5.13;2.70;;;;;;;3.54;100.00;95182.22;6216626;23;20341;-88
2024/01/26 05:46:45;;;;;;;8.70;3.20;;;;;;;3.51;100.00;95176.63;6216434;23;20070;-88
2024/01/26 05:49:12;;;;;;;7.18;3.53;;;;;;;3.62;100.00;95175.25;6191368;23;20024;-88
2024/01/26 05:51:37;;;;;;;14.30;6.47;;;;;;;3.79;100.00;95168.59;6191220;23;20004;-89
2024/01/26 05:54:03;;;;;;;14.15;4.35;;;;;;;3.61;100.00;95163.28;6217045;23;20004;-88
2024/01/26 05:56:28;;;;;;;11.45;4.43;;;;;;;3.57;100.00;95164.66;6192019;23;20003;-88
2024/01/26 05:58:54;;;;;;;9.57;4.30;;;;;;;3.46;100.00;95168.69;6192015;23;20058;-88
2024/01/26 06:01:19;;;;;;;7.05;3.47;;;;;;;3.39;100.00;95164.31;6187465;23;20007;-88
2024/01/26 06:03:45;;;;;;;8.68;4.00;;;;;;;3.22;100.00;95170.91;6191985;23;20083;-88
2024/01/26 06:06:10;;;;;;;9.40;3.78;;;;;;;3.17;100.00;95178.47;6191913;23;20046;-88
2024/01/26 06:08:36;;;;;;;7.03;3.63;;;;;;;3.01;100.00;95182.25;6216575;23;20362;-87
2024/01/26 06:11:03;;;;;;;9.38;4.03;;;;;;;3.07;100.00;95189.25;6216929;23;20023;-87
2024/01/26 06:13:28;;;;;;;5.72;3.47;;;;;;;3.07;100.00;95190.03;6216512;23;20001;-88
2024/01/26 06:15:53;;;;;;;9.43;4.72;;;;;;;3.16;100.00;95190.66;6191936;23;20007;-87
2024/01/26 06:18:19;;;;;;;10.27;4.90;;;;;;;3.30;100.00;95198.38;6217256;23;20377;-88
2024/01/26 06:20:44;;;;;;;11.05;5.10;;;;;;;3.30;100.00;95203.56;6191614;23;20000;-88
2024/01/26 06:23:10;;;;;;;21.30;5.22;;;;;;;3.43;100.00;95210.53;6216551;23;20008;-88
2024/01/26 06:25:35;;;;;;;15.43;6.18;;;;;;;3.50;100.00;95203.53;6191796;23;20001;-88
2024/01/26 06:28:01;;;;;;;11.55;5.80;;;;;;;3.37;100.00;95214.72;6191703;23;20012;-88
2024/01/26 06:30:26;;;;;;;14.70;6.53;;;;;;;3.42;100.00;95214.91;6191529;23;20008;-88
2024/01/26 06:32:52;;;;;;;20.23;7.40;;;;;;;3.38;100.00;95219.72;6191637;23;20349;-88
2024/01/26 06:35:17;;;;;;;15.93;7.65;;;;;;;3.41;100.00;95221.09;6216387;23;20004;-87
2024/01/26 06:37:43;;;;;;;19.65;8.02;;;;;;;3.31;100.00;95225.91;6191580;23;20084;-87
2024/01/26 06:40:10;;;;;;;19.40;8.10;;;;;;;3.30;100.00;95222.50;6191528;23;20020;-89
2024/01/26 06:42:39;;;;;;;20.38;9.07;;;;;;;3.17;100.00;95228.50;6191613;23;20000;-88
2024/01/26 06:45:07;;;;;;;21.52;8.32;;;;;;;3.20;100.00;95232.44;6216823;23;20394;-88
2024/01/26 06:47:33;;;;;;;19.50;8.40;;;;;;;3.18;100.00;95243.03;6191612;23;20471;-88
2024/01/26 06:49:58;;;;;;;20.30;8.38;;;;;;;3.16;100.00;95239.84;6217686;23;20075;-88
2024/01/26 06:52:24;;;;;;;20.23;8.85;;;;;;;3.14;100.00;95231.44;6216591;23;20412;-87
2024/01/26 06:54:49;;;;;;;21.65;9.23;;;;;;;3.27;100.00;95232.47;6191454;23;20107;-88
2024/01/26 06:57:15;;;;;;;16.52;8.35;;;;;;;3.35;100.00;95233.06;6191497;23;20421;-89
2024/01/26 06:59:43;;;;;;;20.00;9.77;;;;;;;3.47;100.00;95241.03;6216315;23;20016;-88
2024/01/26 07:02:08;;;;;;;22.05;8.73;;;;;;;3.34;100.00;95236.63;6216190;23;20318;-88
2024/01/26 07:04:34;;;;;;;26.33;8.90;;;;;;;3.29;100.00;95231.28;6216583;23;20000;-88
2024/01/26 07:06:59;;;;;;;21.23;9.60;;;;;;;3.27;100.00;95235.03;6191329;23;20066;-88
2024/01/26 07:09:25;;;;;;;19.08;8.55;;;;;;;3.52;100.00;95243.03;6191282;23;20008;-88
2024/01/26 07:11:50;;;;;;;19.30;9.10;;;;;;;3.54;100.00;95241.81;6191091;23;20469;-88
2024/01/26 07:14:15;;;;;;;22.83;9.43;;;;;;;3.64;100.00;95240.63;6216349;23;20001;-88
2024/01/26 07:16:41;;;;;;;16.73;8.35;;;;;;;3.65;100.00;95237.03;6217603;23;19992;-88
2024/01/26 07:19:06;;;;;;;22.00;9.23;;;;;;;3.74;100.00;95229.81;6191203;23;19993;-87
2024/01/26 07:21:32;;;;;;;21.98;9.55;;;;;;;3.80;100.00;95229.00;6190785;23;20459;-88
2024/01/26 07:23:58;;;;;;;22.13;9.75;;;;;;;3.77;100.00;95229.41;6216221;23;20019;-88
2024/01/26 07:26:24;;;;;;;20.80;9.88;;;;;;;3.76;100.00;95228.63;6191138;23;20001;-88
2024/01/26 07:28:50;;;;;;;29.25;10.65;;;;;;;3.77;100.00;95239.78;6191123;23;20433;-88
2024/01/26 07:31:15;;;;;;;21.25;9.88;;;;;;;3.96;100.00;95244.16;6190769;23;20001;-88
2024/01/26 07:33:41;;;;;;;24.83;9.95;;;;;;;3.99;100.00;95240.34;6191244;23;20001;-88
2024/01/26 07:36:06;;;;;;;21.50;9.25;;;;;;;4.32;100.00;95247.22;6217460;23;20055;-88
2024/01/26 07:38:32;;;;;;;16.98;8.73;;;;;;;4.39;100.00;95252.41;6216008;23;19996;-88
2024/01/26 07:40:57;;;;;;;20.50;10.10;;;;;;;4.59;100.00;95251.50;6215739;23;20001;-88
2024/01/26 07:43:23;;;;;;;25.75;10.63;;;;;;;4.56;100.00;95255.28;6211346;23;20295;-88
2024/01/26 07:45:49;;;;;;;20.20;9.32;;;;;;;4.74;100.00;95256.44;6190823;23;20075;-88
2024/01/26 07:48:15;;;;;;;21.13;10.30;;;;;;;4.60;100.00;95258.28;6191044;23;20047;-87
2024/01/26 07:50:43;;;;;;;21.38;10.10;;;;;;;4.76;100.00;95257.00;6217070;23;20076;-88
2024/01/26 07:53:09;;;;;;;21.25;9.90;;;;;;;4.74;100.00;95269.41;6215521;23;20330;-88
2024/01/26 07:55:35;;;;;;;19.67;9.15;;;;;;;4.99;100.00;95260.88;6190717;23;20063;-87
2024/01/26 07:58:00;;;;;;;18.35;8.73;;;;;;;5.08;100.00;95270.78;6215880;23;20369;-87
2024/01/26 08:00:26;;;;;;;17.13;7.72;;;;;;;5.11;100.00;95274.78;6215684;23;20028;-87
2024/01/26 08:02:52;;;;;;;17.33;8.07;;;;;;;5.07;100.00;95271.00;6215781;23;20046;-87
2024/01/26 08:05:18;;;;;;;20.10;8.60;;;;;;;5.04;100.00;95279.22;6215838;23;20008;-87
2024/01/26 08:07:45;;;;;;;19.27;8.63;;;;;;;5.12;100.00;95291.94;6215866;23;19993;-87
2024/01/26 08:10:10;;;;;;;21.70;8.95;;;;;;;5.19;100.00;95289.31;6190753;23;20008;-88
2024/01/26 08:12:36;;;;;;;16.15;8.32;;;;;;;5.03;100.00;95282.84;6215627;23;19993;-87
2024/01/26 08:15:03;;;;;;;24.10;9.70;;;;;;;4.95;100.00;95289.84;6191357;23;20052;-87
2024/01/26 08:17:28;;;;;;;20.58;10.70;;;;;;;5.06;100.00;95288.38;6215699;23;20020;-87
2024/01/26 08:19:54;;;;;;;26.42;12.13;;;;;;;4.93;100.00;95299.66;6215753;23;19997;-87
2024/01/26 08:22:19;;;;;;;34.75;14.23;;;;;;;5.06;100.00;95298.00;6215244;23;20410;-87
2024/01/26 08:24:45;;;;;;;25.15;11.70;;;;;;;5.27;100.00;95302.06;6215629;23;20001;-87
2024/01/26 08:27:10;;;;;;;24.20;10.77;;;;;;;5.39;100.00;95309.97;6190862;23;20027;-88
2024/01/26 08:29:36;;;;;;;23.20;11.27;;;;;;;5.39;100.00;95320.38;6215589;23;20076;-88
2024/01/26 08:32:01;;;;;;;29.10;13.50;;;;;;;5.60;100.00;95327.00;6215618;23;20000;-88
2024/01/26 08:34:26;;;;;;;25.52;13.07;;;;;;;5.57;100.00;95319.66;6217165;23;19992;-88
2024/01/26 08:36:52;;;;;;;30.45;13.45;;;;;;;5.71;100.00;95328.13;6215594;23;20390;-87
2024/01/26 08:39:18;;;;;;;27.48;12.95;;;;;;;5.93;100.00;95331.13;6191059;23;20119;-87
2024/01/26 08:41:43;;;;;;;31.27;14.07;;;;;;;5.90;100.00;95323.00;6216973;23;20325;-88
2024/01/26 08:44:12;;;;;;;31.35;12.70;;;;;;;6.04;100.00;95334.91;6215674;23;20413;-88
2024/01/26 08:46:38;;;;;;;24.95;13.65;;;;;;;6.08;100.00;95333.44;6215649;23;20023;-87
2024/01/26 08:49:06;;;;;;;28.08;14.00;;;;;;;6.12;100.00;95340.81;6190743;23;20091;-88
2024/01/26 08:51:31;;;;;;;33.33;14.55;;;;;;;6.04;100.00;95342.69;6191047;23;20004;-88
2024/01/26 08:53:57;;;;;;;35.72;15.73;;;;;;;6.06;100.00;95345.06;6215503;23;20141;-88
2024/01/26 08:56:23;;;;;;;33.63;16.23;;;;;;;6.22;100.00;95343.75;6191711;23;20087;-88
2024/01/26 08:58:49;;;;;;;30.90;16.02;;;;;;;6.35;100.00;95346.22;6192808;23;20047;-88
2024/01/26 09:01:15;;;;;;;34.70;16.75;;;;;;;6.30;100.00;95337.44;6192491;23;20000;-88
2024/01/26 09:03:40;;;;;;;29.48;14.52;;;;;;;6.39;100.00;95335.38;6192566;23;20005;-88
2024/01/26 09:06:07;;;;;;;31.75;14.30;;;;;;;6.44;100.00;95351.94;6217444;23;20008;-88
2024/01/26 09:08:33;;;;;;;28.30;13.68;;;;;;;6.55;100.00;95347.03;6217906;23;19997;-88
2024/01/26 09:10:59;;;;;;;39.50;16.20;;;;;;;6.36;100.00;95354.81;6217199;23;20007;-89
2024/01/26 09:13:25;;;;;;;43.25;17.58;;;;;;;6.30;100.00;95355.69;6192837;23;19996;-88
2024/01/26 09:15:51;;;;;;;44.53;17.13;;;;;;;6.49;100.00;95351.28;6217449;23;20001;-89
2024/01/26 09:18:17;;;;;;;31.73;15.23;;;;;;;6.55;100.00;95360.81;6192460;23;20000;-89
2024/01/26 09:20:43;;;;;;;36.40;16.75;;;;;;;6.66;100.00;95356.69;6217327;23;20003;-88
2024/01/26 09:23:09;;;;;;;40.47;18.52;;;;;;;6.63;100.00;95363.16;6192660;23;20001;-88
2024/01/26 09:25:35;;;;;;;36.95;18.15;;;;;;;6.57;100.00;95361.41;6192327;23;20005;-89
2024/01/26 09:28:00;;;;;;;37.00;17.92;;;;;;;6.58;100.00;95362.19;6191995;23;19997;-89
2024/01/26 09:30:26;;;;;;;38.25;18.40;;;;;;;6.52;100.00;95361.25;6217481;23;20009;-89
2024/01/26 09:32:51;;;;;;;41.78;18.67;;;;;;;6.63;100.00;95368.34;6217017;23;20046;-89
2024/01/26 09:35:17;;;;;;;40.78;19.10;;;;;;;6.59;100.00;95369.00;6192736;23;20000;-89
2024/01/26 09:37:42;;;;;;;45.88;19.88;;;;;;;6.57;100.00;95371.03;6192253;23;20039;-88
2024/01/26 09:40:11;;;;;;;37.97;19.13;;;;;;;6.79;100.00;95379.97;6192243;23;20409;-88
2024/01/26 09:42:36;;;;;;;42.25;20.30;;;;;;;6.96;100.00;95389.03;6192270;23;20406;-88
2024/01/26 09:45:04;;;;;;;41.13;19.98;;;;;;;7.02;100.00;95375.91;6192317;23;20016;-89
2024/01/26 09:47:31;;;;;;;40.58;18.92;;;;;;;7.11;100.00;95378.25;6192555;23;20140;-89
2024/01/26 09:49:57;;;;;;;38.85;19.63;;;;;;;7.19;100.00;95383.94;6192170;23;20013;-89
2024/01/26 09:52:23;;;;;;;47.30;20.27;;;;;;;7.10;100.00;95387.84;6216794;23;20075;-89
2024/01/26 09:54:50;;;;;;;40.35;18.67;;;;;;;7.29;100.00;95391.22;6217103;23;20001;-89
2024/01/26 09:57:16;;;;;;;42.15;20.08;;;;;;;7.31;100.00;95383.97;6192065;23;20000;-88
2024/01/26 09:59:41;;;;;;;42.28;18.90;;;;;;;7.46;100.00;95377.56;6217468;23;19997;-88
2024/01/26 10:02:07;;;;;;;42.22;19.65;;;;;;;7.65;100.00;95380.91;6216670;23;20291;-88
2024/01/26 10:04:32;;;;;;;37.13;18.60;;;;;;;7.88;100.00;95389.78;6192049;23;20292;-88
2024/01/26 10:06:58;;;;;;;38.80;18.50;;;;;;;7.92;100.00;95390.94;6191943;23;20329;-88
2024/01/26 10:09:24;;;;;;;37.22;18.58;;;;;;;7.90;100.00;95393.78;6191795;23;20004;-88
2024/01/26 10:11:50;;;;;;;33.20;17.95;;;;;;;8.15;100.00;95399.81;6191745;23;20024;-89
2024/01/26 10:14:22;;;;;;;38.50;19.08;;;;;;;8.30;100.00;95397.53;6191821;23;20457;-88
2024/01/26 10:16:58;;;;;;;34.27;17.17;;;;;;;8.44;100.00;95399.94;6191800;23;20079;-88
2024/01/26 10:19:27;;;;;;;38.40;19.23;;;;;;;8.43;100.00;95400.97;6192083;23;20001;-88
2024/01/26 10:21:54;;;;;;;36.88;17.35;;;;;;;8.49;100.00;95407.91;6191613;23;20023;-89
2024/01/26 10:24:23;;;;;;;33.17;16.90;;;;;;;8.58;100.00;95409.16;6191469;23;20004;-89
2024/01/26 10:26:53;;;;;;;38.08;17.08;;;;;;;8.75;100.00;95417.09;6191896;23;19996;-88
2024/01/26 10:29:19;;;;;;;35.13;17.00;;;;;;;8.65;100.00;95416.88;6192139;23;20012;-89
2024/01/26 10:31:45;;;;;;;40.90;18.85;;;;;;;8.68;100.00;95420.84;6216398;23;20075;-89
2024/01/26 10:34:15;;;;;;;33.88;16.60;;;;;;;8.77;100.00;95394.16;6216666;23;20004;-90
2024/01/26 10:36:42;;;;;;;32.10;15.98;;;;;;;8.92;100.00;95400.72;6191225;23;20004;-89
2024/01/26 10:39:12;;;;;;;36.22;15.70;;;;;;;9.15;100.00;95407.69;6191425;23;19992;-90
2024/01/26 10:41:39;;;;;;;30.40;14.57;;;;;;;9.40;100.00;95403.97;6215975;23;19996;-88
2024/01/26 10:44:05;;;;;;;34.42;14.93;;;;;;;9.64;100.00;95396.03;6191925;23;20084;-87
2024/01/26 10:46:30;;;;;;;25.73;13.88;;;;;;;9.67;100.00;95392.94;6191507;23;20004;-88
2024/01/26 10:48:56;;;;;;;27.80;14.55;;;;;;;9.82;100.00;95386.38;6191518;23;20004;-89
2024/01/26 10:51:22;;;;;;;27.60;14.10;;;;;;;9.69;100.00;95377.78;6191401;23;19996;-88
2024/01/26 10:53:49;;;;;;;35.00;15.57;;;;;;;9.73;100.00;95376.28;6191327;23;20043;-89
2024/01/26 10:56:15;;;;;;;30.55;14.85;;;;;;;9.78;100.00;95357.25;6191290;23;20302;-88
2024/01/26 10:58:40;;;;;;;28.50;14.68;;;;;;;9.75;100.00;95357.75;6191810;23;20008;-87
2024/01/26 11:01:06;;;;;;;34.17;15.18;;;;;;;9.80;100.00;95357.81;6216063;23;20003;-89
2024/01/26 11:03:32;;;;;;;34.58;15.05;;;;;;;9.89;100.00;95361.63;6191355;23;20390;-89
2024/01/26 11:05:58;;;;;;;37.35;15.13;;;;;;;9.96;100.00;95369.31;6191781;23;20126;-89
2024/01/26 11:08:25;;;;;;;30.50;16.00;;;;;;;10.11;100.00;95376.59;6191311;23;20000;-88
2024/01/26 11:10:52;;;;;;;34.65;16.60;;;;;;;9.85;100.00;95373.63;6191304;23;20345;-88
2024/01/26 11:13:17;;;;;;;30.83;15.82;;;;;;;9.96;100.00;95371.94;6192034;23;20000;-88
2024/01/26 11:15:44;;;;;;;30.52;15.75;;;;;;;10.33;100.00;95368.03;6216184;23;20042;-88
2024/01/26 11:18:28;;;;;;;28.45;14.77;;;;;;;10.50;100.00;95365.41;6215706;23;20001;-88